GXA6414 KMCO-KPSP
Flight info
| Callsign | GXA6414 |
|---|---|
| Flight time | N/A |
| Altitude | 34000 |
| Route | RDSOX1 JFRYS PATOY Q116 JAWJA CABLO DEFUN PNMOA REECO HARES TRYTN PRIZZ GZNTA CDS CHLLD/N0442F360 LZZRD DRYHT NOFLY WLVRN CURIV RDBUL1 |
| Aircraft | A319/M-SDE3FGHIRWY/LB1 |
Departure
| Time | 2026-04-21 21:07 |
|---|---|
| Airport | Orlando International Airport (KMCO) |
Arrival
| Time | N/A |
|---|---|
| Airport | Palm Springs International Airport (KPSP) |
| Time | Latitude | Longitude | Altitude | Speed | Heading |
|---|---|---|---|---|---|
| 2026-04-21 20:49 | 28.42130 | -81.33094 | 98 ft | 0 kts | 359° |
| 2026-04-21 21:01 | 28.42141 | -81.33088 | 98 ft | 1 kts | 49° |
| 2026-04-21 21:01 | 28.42141 | -81.33061 | 98 ft | 4 kts | 91° |
| 2026-04-21 21:01 | 28.42140 | -81.33016 | 98 ft | 7 kts | 92° |
| 2026-04-21 21:01 | 28.42138 | -81.32958 | 98 ft | 7 kts | 92° |
| 2026-04-21 21:02 | 28.42101 | -81.32914 | 98 ft | 13 kts | 176° |
| 2026-04-21 21:02 | 28.41992 | -81.32914 | 98 ft | 16 kts | 179° |
| 2026-04-21 21:02 | 28.41882 | -81.32913 | 100 ft | 16 kts | 179° |
| 2026-04-21 21:02 | 28.41774 | -81.32912 | 98 ft | 15 kts | 180° |
| 2026-04-21 21:03 | 28.41667 | -81.32911 | 98 ft | 15 kts | 179° |
| 2026-04-21 21:03 | 28.41570 | -81.32908 | 99 ft | 12 kts | 172° |
| 2026-04-21 21:03 | 28.41535 | -81.32840 | 99 ft | 11 kts | 89° |
| 2026-04-21 21:03 | 28.41536 | -81.32753 | 102 ft | 11 kts | 89° |
| 2026-04-21 21:04 | 28.41537 | -81.32659 | 101 ft | 13 kts | 89° |
| 2026-04-21 21:04 | 28.41538 | -81.32542 | 99 ft | 16 kts | 89° |
| 2026-04-21 21:04 | 28.41539 | -81.32410 | 98 ft | 16 kts | 89° |
| 2026-04-21 21:04 | 28.41540 | -81.32282 | 97 ft | 16 kts | 90° |
| 2026-04-21 21:05 | 28.41551 | -81.32202 | 97 ft | 9 kts | 43° |
| 2026-04-21 21:05 | 28.41578 | -81.32197 | 99 ft | 0 kts | 0° |
| 2026-04-21 21:06 | 28.41608 | -81.32197 | 99 ft | 21 kts | 0° |
| 2026-04-21 21:06 | 28.42004 | -81.32200 | 102 ft | 89 kts | 359° |
| 2026-04-21 21:06 | 28.42816 | -81.32209 | 101 ft | 143 kts | 359° |
| 2026-04-21 21:06 | 28.43959 | -81.32224 | 149 ft | 179 kts | 5° |
| 2026-04-21 21:07 | 28.45136 | -81.32216 | 906 ft | 163 kts | 6° |
| 2026-04-21 21:07 | 28.46252 | -81.32227 | 1601 ft | 158 kts | 5° |
| 2026-04-21 21:07 | 28.47357 | -81.32259 | 2160 ft | 164 kts | 7° |
| 2026-04-21 21:07 | 28.48550 | -81.32256 | 2576 ft | 177 kts | 7° |
| 2026-04-21 21:08 | 28.49843 | -81.32253 | 2953 ft | 194 kts | 5° |
| 2026-04-21 21:08 | 28.51237 | -81.32263 | 3406 ft | 208 kts | 4° |
| 2026-04-21 21:08 | 28.52757 | -81.32437 | 3778 ft | 231 kts | 357° |
| 2026-04-21 21:08 | 28.54406 | -81.32707 | 4351 ft | 246 kts | 352° |
| 2026-04-21 21:09 | 28.56028 | -81.33424 | 5172 ft | 253 kts | 339° |
| 2026-04-21 21:09 | 28.57607 | -81.34310 | 6034 ft | 256 kts | 330° |
| 2026-04-21 21:09 | 28.58900 | -81.35724 | 6875 ft | 262 kts | 307° |
| 2026-04-21 21:09 | 28.59661 | -81.37677 | 7397 ft | 283 kts | 282° |
| 2026-04-21 21:10 | 28.59734 | -81.39954 | 8087 ft | 292 kts | 270° |
| 2026-04-21 21:10 | 28.59692 | -81.42269 | 8931 ft | 293 kts | 270° |
| 2026-04-21 21:10 | 28.59661 | -81.44595 | 9769 ft | 295 kts | 270° |
| 2026-04-21 21:10 | 28.59637 | -81.46966 | 10322 ft | 308 kts | 271° |
| 2026-04-21 21:11 | 28.59441 | -81.49485 | 10538 ft | 331 kts | 259° |
| 2026-04-21 21:11 | 28.58674 | -81.51998 | 11080 ft | 341 kts | 246° |
| 2026-04-21 21:11 | 28.57679 | -81.54468 | 11763 ft | 345 kts | 247° |
| 2026-04-21 21:11 | 28.56694 | -81.56927 | 12457 ft | 348 kts | 247° |
| 2026-04-21 21:12 | 28.55691 | -81.59439 | 13154 ft | 351 kts | 248° |
| 2026-04-21 21:12 | 28.54676 | -81.61975 | 13860 ft | 353 kts | 248° |
| 2026-04-21 21:12 | 28.53652 | -81.64525 | 14478 ft | 356 kts | 248° |
| 2026-04-21 21:12 | 28.52620 | -81.67093 | 15096 ft | 358 kts | 248° |
| 2026-04-21 21:13 | 28.51583 | -81.69679 | 15720 ft | 359 kts | 248° |
| 2026-04-21 21:13 | 28.50544 | -81.72270 | 16356 ft | 361 kts | 248° |
| 2026-04-21 21:13 | 28.49498 | -81.74874 | 16981 ft | 363 kts | 248° |
| 2026-04-21 21:13 | 28.48443 | -81.77497 | 17600 ft | 365 kts | 248° |
| 2026-04-21 21:14 | 28.47742 | -81.79236 | 18002 ft | 366 kts | 248° |
| 2026-04-21 21:14 | 28.46677 | -81.81875 | 18602 ft | 369 kts | 248° |
| 2026-04-21 21:14 | 28.45602 | -81.84538 | 19112 ft | 371 kts | 248° |
| 2026-04-21 21:14 | 28.44522 | -81.87208 | 19628 ft | 373 kts | 248° |
| 2026-04-21 21:15 | 28.43475 | -81.89908 | 20157 ft | 374 kts | 252° |
| 2026-04-21 21:15 | 28.42818 | -81.92753 | 20709 ft | 372 kts | 263° |
| 2026-04-21 21:15 | 28.42648 | -81.95673 | 21254 ft | 371 kts | 272° |
| 2026-04-21 21:15 | 28.42708 | -81.98603 | 21801 ft | 372 kts | 272° |
| 2026-04-21 21:16 | 28.42762 | -82.01542 | 22352 ft | 372 kts | 272° |
| 2026-04-21 21:16 | 28.42810 | -82.04486 | 22892 ft | 373 kts | 272° |
| 2026-04-21 21:16 | 28.42854 | -82.07437 | 23412 ft | 374 kts | 272° |
| 2026-04-21 21:16 | 28.42900 | -82.10407 | 23909 ft | 376 kts | 272° |
| 2026-04-21 21:17 | 28.42944 | -82.13373 | 24309 ft | 377 kts | 272° |
| 2026-04-21 21:17 | 28.42987 | -82.16359 | 24696 ft | 379 kts | 272° |
| 2026-04-21 21:17 | 28.43029 | -82.19360 | 25058 ft | 381 kts | 272° |
| 2026-04-21 21:17 | 28.43073 | -82.22381 | 25412 ft | 383 kts | 273° |
| 2026-04-21 21:18 | 28.43119 | -82.25415 | 25765 ft | 385 kts | 273° |
| 2026-04-21 21:18 | 28.43164 | -82.28464 | 26112 ft | 387 kts | 273° |
| 2026-04-21 21:18 | 28.43208 | -82.31531 | 26460 ft | 389 kts | 273° |
| 2026-04-21 21:18 | 28.43251 | -82.34617 | 26798 ft | 391 kts | 273° |
| 2026-04-21 21:19 | 28.43295 | -82.37716 | 27143 ft | 393 kts | 273° |
| 2026-04-21 21:19 | 28.43369 | -82.40826 | 27492 ft | 394 kts | 277° |
| 2026-04-21 21:19 | 28.43904 | -82.43870 | 27823 ft | 394 kts | 289° |
| 2026-04-21 21:19 | 28.45031 | -82.46707 | 28143 ft | 396 kts | 301° |
| 2026-04-21 21:20 | 28.46704 | -82.49210 | 28470 ft | 400 kts | 313° |
| 2026-04-21 21:20 | 28.48850 | -82.51241 | 28797 ft | 405 kts | 324° |
| 2026-04-21 21:20 | 28.51286 | -82.52893 | 29111 ft | 408 kts | 327° |
| 2026-04-21 21:20 | 28.53741 | -82.54528 | 29451 ft | 410 kts | 327° |
| 2026-04-21 21:21 | 28.56207 | -82.56169 | 29769 ft | 412 kts | 327° |
| 2026-04-21 21:21 | 28.58682 | -82.57818 | 30078 ft | 413 kts | 327° |
| 2026-04-21 21:21 | 28.61171 | -82.59481 | 30369 ft | 415 kts | 326° |
| 2026-04-21 21:21 | 28.63631 | -82.61131 | 30626 ft | 417 kts | 326° |
| 2026-04-21 21:22 | 28.66128 | -82.62811 | 30891 ft | 418 kts | 326° |
| 2026-04-21 21:22 | 28.68634 | -82.64496 | 31157 ft | 419 kts | 327° |
| 2026-04-21 21:22 | 28.71140 | -82.66180 | 31443 ft | 419 kts | 327° |
| 2026-04-21 21:22 | 28.73645 | -82.67863 | 31828 ft | 417 kts | 327° |
| 2026-04-21 21:23 | 28.76133 | -82.69535 | 32222 ft | 414 kts | 327° |
| 2026-04-21 21:23 | 28.78609 | -82.71198 | 32609 ft | 412 kts | 327° |
| 2026-04-21 21:23 | 28.81076 | -82.72854 | 32997 ft | 410 kts | 327° |
| 2026-04-21 21:23 | 28.83529 | -82.74505 | 33382 ft | 408 kts | 327° |
| 2026-04-21 21:24 | 28.85975 | -82.76150 | 33771 ft | 406 kts | 327° |
| 2026-04-21 21:24 | 28.88397 | -82.77784 | 34147 ft | 405 kts | 327° |
| 2026-04-21 21:24 | 28.93191 | -82.81016 | 34252 ft | 394 kts | 327° |
| 2026-04-21 21:25 | 28.97879 | -82.84181 | 34249 ft | 390 kts | 327° |
| 2026-04-21 21:25 | 29.02538 | -82.87339 | 34248 ft | 390 kts | 327° |
| 2026-04-21 21:26 | 29.07199 | -82.90527 | 34241 ft | 389 kts | 325° |
| 2026-04-21 21:26 | 29.11652 | -82.94036 | 34242 ft | 388 kts | 321° |
| 2026-04-21 21:27 | 29.15994 | -82.97705 | 34249 ft | 388 kts | 321° |
| 2026-04-21 21:27 | 29.20350 | -83.01354 | 34249 ft | 388 kts | 322° |
| 2026-04-21 21:28 | 29.24714 | -83.04935 | 34254 ft | 389 kts | 322° |
| 2026-04-21 21:29 | 29.31317 | -83.10329 | 34252 ft | 389 kts | 322° |
| 2026-04-21 21:29 | 29.35711 | -83.13926 | 34249 ft | 389 kts | 322° |
| 2026-04-21 21:30 | 29.40111 | -83.17543 | 34249 ft | 389 kts | 322° |
| 2026-04-21 21:30 | 29.44512 | -83.21152 | 34246 ft | 389 kts | 322° |
| 2026-04-21 21:31 | 29.48912 | -83.24769 | 34246 ft | 389 kts | 322° |
| 2026-04-21 21:31 | 29.53315 | -83.28402 | 34246 ft | 390 kts | 322° |
| 2026-04-21 21:32 | 29.57711 | -83.32039 | 34246 ft | 390 kts | 322° |
| 2026-04-21 21:32 | 29.62121 | -83.35677 | 34246 ft | 390 kts | 322° |
| 2026-04-21 21:33 | 29.66531 | -83.39312 | 34249 ft | 390 kts | 322° |
| 2026-04-21 21:33 | 29.70939 | -83.42961 | 34251 ft | 390 kts | 321° |
| 2026-04-21 21:34 | 29.75345 | -83.46618 | 34252 ft | 391 kts | 321° |
| 2026-04-21 21:34 | 29.79753 | -83.50278 | 34251 ft | 391 kts | 321° |
| 2026-04-21 21:35 | 29.84166 | -83.53946 | 34254 ft | 391 kts | 321° |
| 2026-04-21 21:35 | 29.88583 | -83.57617 | 34252 ft | 392 kts | 321° |
| 2026-04-21 21:36 | 29.93007 | -83.61295 | 34251 ft | 392 kts | 321° |
| 2026-04-21 21:36 | 29.97439 | -83.64977 | 34250 ft | 393 kts | 321° |
| 2026-04-21 21:37 | 30.01873 | -83.68667 | 34251 ft | 393 kts | 321° |
| 2026-04-21 21:37 | 30.06308 | -83.72367 | 34250 ft | 394 kts | 321° |
| 2026-04-21 21:38 | 30.10750 | -83.76078 | 34249 ft | 394 kts | 321° |
| 2026-04-21 21:38 | 30.15198 | -83.79798 | 34246 ft | 395 kts | 321° |
| 2026-04-21 21:39 | 30.18975 | -83.84298 | 34245 ft | 390 kts | 303° |
| 2026-04-21 21:39 | 30.22038 | -83.89489 | 34242 ft | 391 kts | 303° |
| 2026-04-21 21:40 | 30.25123 | -83.94675 | 34244 ft | 392 kts | 303° |
| 2026-04-21 21:40 | 30.28212 | -83.99878 | 34240 ft | 392 kts | 303° |
| 2026-04-21 21:41 | 30.31297 | -84.05094 | 34250 ft | 393 kts | 303° |
| 2026-04-21 21:41 | 30.34392 | -84.10320 | 34248 ft | 393 kts | 303° |
| 2026-04-21 21:42 | 30.37457 | -84.15518 | 34250 ft | 394 kts | 303° |
| 2026-04-21 21:42 | 30.40546 | -84.20774 | 34250 ft | 394 kts | 303° |
| 2026-04-21 21:43 | 30.43632 | -84.26029 | 34251 ft | 394 kts | 303° |
| 2026-04-21 21:43 | 30.46723 | -84.31291 | 34253 ft | 395 kts | 303° |
| 2026-04-21 21:44 | 30.49816 | -84.36550 | 34249 ft | 395 kts | 303° |
| 2026-04-21 21:44 | 30.52908 | -84.41821 | 34253 ft | 395 kts | 303° |
| 2026-04-21 21:45 | 30.55999 | -84.47099 | 34255 ft | 396 kts | 303° |
| 2026-04-21 21:45 | 30.59098 | -84.52385 | 34256 ft | 396 kts | 303° |
| 2026-04-21 21:46 | 30.62185 | -84.57676 | 34257 ft | 396 kts | 303° |
| 2026-04-21 21:46 | 30.65271 | -84.62977 | 34262 ft | 396 kts | 303° |
| 2026-04-21 21:47 | 30.68357 | -84.68280 | 34266 ft | 396 kts | 303° |
| 2026-04-21 21:47 | 30.71444 | -84.73584 | 34264 ft | 396 kts | 303° |
| 2026-04-21 21:48 | 30.74520 | -84.78896 | 34263 ft | 396 kts | 303° |
| 2026-04-21 21:48 | 30.77020 | -84.84569 | 34261 ft | 395 kts | 287° |
| 2026-04-21 21:49 | 30.77722 | -84.90901 | 34256 ft | 397 kts | 274° |
| 2026-04-21 21:49 | 30.77936 | -84.97311 | 34249 ft | 397 kts | 274° |
| 2026-04-21 21:50 | 30.78157 | -85.03689 | 34251 ft | 397 kts | 274° |
| 2026-04-21 21:50 | 30.78384 | -85.10101 | 34255 ft | 397 kts | 274° |
| 2026-04-21 21:51 | 30.78598 | -85.16509 | 34262 ft | 396 kts | 274° |
| 2026-04-21 21:51 | 30.78803 | -85.22902 | 34266 ft | 395 kts | 274° |
| 2026-04-21 21:52 | 30.79010 | -85.29288 | 34270 ft | 394 kts | 274° |
| 2026-04-21 21:52 | 30.79212 | -85.35657 | 34270 ft | 394 kts | 274° |
| 2026-04-21 21:53 | 30.79414 | -85.42014 | 34271 ft | 393 kts | 273° |
| 2026-04-21 21:53 | 30.79616 | -85.48357 | 34273 ft | 392 kts | 273° |
| 2026-04-21 21:54 | 30.79808 | -85.54691 | 34278 ft | 392 kts | 273° |
| 2026-04-21 21:54 | 30.79991 | -85.61019 | 34277 ft | 391 kts | 273° |
| 2026-04-21 21:55 | 30.80178 | -85.67342 | 34277 ft | 391 kts | 273° |
| 2026-04-21 21:55 | 30.80363 | -85.73617 | 34273 ft | 390 kts | 273° |
| 2026-04-21 21:56 | 30.80545 | -85.79923 | 34261 ft | 390 kts | 272° |
| 2026-04-21 21:56 | 30.80718 | -85.86227 | 34250 ft | 390 kts | 272° |
| 2026-04-21 21:57 | 30.80889 | -85.92534 | 34246 ft | 390 kts | 272° |
| 2026-04-21 21:57 | 30.81062 | -85.98858 | 34251 ft | 391 kts | 272° |
| 2026-04-21 21:58 | 30.81205 | -86.04117 | 34257 ft | 392 kts | 272° |
| 2026-04-21 21:58 | 30.81370 | -86.10451 | 34256 ft | 392 kts | 273° |
| 2026-04-21 21:59 | 30.82556 | -86.16621 | 34263 ft | 394 kts | 290° |
| 2026-04-21 21:59 | 30.84495 | -86.22590 | 34260 ft | 395 kts | 289° |
| 2026-04-21 22:00 | 30.86430 | -86.28576 | 34261 ft | 396 kts | 289° |
| 2026-04-21 22:00 | 30.88369 | -86.34578 | 34259 ft | 396 kts | 289° |
| 2026-04-21 22:01 | 30.90304 | -86.40597 | 34263 ft | 397 kts | 289° |
| 2026-04-21 22:01 | 30.92241 | -86.46625 | 34265 ft | 398 kts | 289° |
| 2026-04-21 22:02 | 30.94175 | -86.52662 | 34262 ft | 398 kts | 289° |
| 2026-04-21 22:02 | 30.96112 | -86.58717 | 34264 ft | 399 kts | 289° |
| 2026-04-21 22:03 | 30.98048 | -86.64780 | 34261 ft | 399 kts | 289° |
| 2026-04-21 22:03 | 30.99969 | -86.70801 | 34261 ft | 399 kts | 289° |
| 2026-04-21 22:04 | 31.01902 | -86.76860 | 34260 ft | 399 kts | 289° |
| 2026-04-21 22:04 | 31.03823 | -86.82920 | 34264 ft | 398 kts | 289° |
| 2026-04-21 22:05 | 31.05739 | -86.88977 | 34268 ft | 398 kts | 289° |
| 2026-04-21 22:05 | 31.07654 | -86.95022 | 34263 ft | 397 kts | 289° |
| 2026-04-21 22:06 | 31.09565 | -87.01059 | 34269 ft | 396 kts | 289° |
| 2026-04-21 22:06 | 31.11465 | -87.07095 | 34277 ft | 396 kts | 289° |
| 2026-04-21 22:07 | 31.13360 | -87.13117 | 34276 ft | 395 kts | 289° |
| 2026-04-21 22:07 | 31.15254 | -87.19131 | 34279 ft | 394 kts | 288° |
| 2026-04-21 22:08 | 31.17136 | -87.25138 | 34279 ft | 394 kts | 288° |
| 2026-04-21 22:08 | 31.19050 | -87.31123 | 34278 ft | 394 kts | 292° |
| 2026-04-21 22:09 | 31.21826 | -87.36665 | 34286 ft | 396 kts | 299° |
| 2026-04-21 22:09 | 31.24725 | -87.42137 | 34288 ft | 395 kts | 298° |
| 2026-04-21 22:10 | 31.27587 | -87.47567 | 34285 ft | 395 kts | 298° |
| 2026-04-21 22:10 | 31.30463 | -87.53035 | 34281 ft | 395 kts | 298° |
| 2026-04-21 22:11 | 31.33341 | -87.58508 | 34275 ft | 395 kts | 298° |
| 2026-04-21 22:11 | 31.36224 | -87.63988 | 34268 ft | 395 kts | 298° |
| 2026-04-21 22:12 | 31.39105 | -87.69470 | 34272 ft | 396 kts | 298° |
| 2026-04-21 22:12 | 31.41979 | -87.74964 | 34269 ft | 396 kts | 298° |
| 2026-04-21 22:13 | 31.44853 | -87.80464 | 34268 ft | 396 kts | 298° |
| 2026-04-21 22:13 | 31.47733 | -87.85966 | 34266 ft | 396 kts | 298° |